Bryce Canyon Natl Park, Utah
Current Conditions -  °F | °C
As of 4:53 PM on Wednesday 22 Oct 2014 (Local Time) from KBCE Reporting Station
Overcast Overcast  
Wind Chill: 62°   Ceiling: 7000
Heat Index: 62°   Visibility: 10mi
Dew Point: 31°   Wind: 5mph
Humidity: 31%   Direction: 80°E
Pressure: 30.24"   Gusts: NA
Location:  37.58°N, 112.17°W
Report Text: KBCE 222253Z AUTO 08004KT 10SM OVC070 17/M01 A3024 RMK AO2 SLP162 T01671006 TSNO
Loading
Personal Weather Stations






























Interactive Weather Map
Tropical Storm Tracking
New forecast layout! Learn more

10-Day Weather Forecast

Advertisements
Track Severe Weather on mobile